sensor_id;sensor_type;location;lat;lon;timestamp;temperature;humidity
1678;DHT22;6034;46.864;15.216;2023-03-30T05:01:00;6.00;94.30
1678;DHT22;6034;46.864;15.216;2023-03-30T05:03:28;6.00;94.20
1678;DHT22;6034;46.864;15.216;2023-03-30T05:05:56;6.00;94.80
1678;DHT22;6034;46.864;15.216;2023-03-30T05:08:23;6.00;97.50
1678;DHT22;6034;46.864;15.216;2023-03-30T05:10:50;6.00;96.80
1678;DHT22;6034;46.864;15.216;2023-03-30T05:13:18;6.00;95.00
1678;DHT22;6034;46.864;15.216;2023-03-30T05:15:52;6.00;95.40
1678;DHT22;6034;46.864;15.216;2023-03-30T05:18:21;6.10;94.80
1678;DHT22;6034;46.864;15.216;2023-03-30T05:20:49;6.10;97.40
1678;DHT22;6034;46.864;15.216;2023-03-30T05:23:16;6.10;98.40
1678;DHT22;6034;46.864;15.216;2023-03-30T05:25:44;6.10;97.70
1678;DHT22;6034;46.864;15.216;2023-03-30T05:28:13;6.20;97.50
1678;DHT22;6034;46.864;15.216;2023-03-30T05:30:41;6.20;96.40
1678;DHT22;6034;46.864;15.216;2023-03-30T05:33:09;6.20;95.80
1678;DHT22;6034;46.864;15.216;2023-03-30T05:35:38;6.20;96.10
1678;DHT22;6034;46.864;15.216;2023-03-30T05:38:05;6.20;96.10
1678;DHT22;6034;46.864;15.216;2023-03-30T05:40:33;6.30;95.70
1678;DHT22;6034;46.864;15.216;2023-03-30T05:43:00;6.20;95.60
1678;DHT22;6034;46.864;15.216;2023-03-30T05:45:28;6.30;95.50
1678;DHT22;6034;46.864;15.216;2023-03-30T05:47:55;6.30;94.10
1678;DHT22;6034;46.864;15.216;2023-03-30T05:50:23;6.40;94.60
1678;DHT22;6034;46.864;15.216;2023-03-30T05:52:51;6.40;93.90
1678;DHT22;6034;46.864;15.216;2023-03-30T05:55:19;6.50;94.50
1678;DHT22;6034;46.864;15.216;2023-03-30T05:57:46;6.50;96.40
1678;DHT22;6034;46.864;15.216;2023-03-30T06:00:14;6.60;96.80
1678;DHT22;6034;46.864;15.216;2023-03-30T06:02:42;6.60;97.10
1678;DHT22;6034;46.864;15.216;2023-03-30T06:05:09;6.60;96.80
1678;DHT22;6034;46.864;15.216;2023-03-30T06:07:37;6.70;96.50
1678;DHT22;6034;46.864;15.216;2023-03-30T06:10:06;6.60;99.90
1678;DHT22;6034;46.864;15.216;2023-03-30T06:12:34;6.60;99.90
1678;DHT22;6034;46.864;15.216;2023-03-30T06:15:01;6.60;99.90
1678;DHT22;6034;46.864;15.216;2023-03-30T06:17:29;6.40;99.90
1678;DHT22;6034;46.864;15.216;2023-03-30T06:19:57;6.40;99.90
1678;DHT22;6034;46.864;15.216;2023-03-30T06:22:24;6.50;99.90
1678;DHT22;6034;46.864;15.216;2023-03-30T06:24:51;6.60;98.50
1678;DHT22;6034;46.864;15.216;2023-03-30T06:27:20;6.70;98.10
1678;DHT22;6034;46.864;15.216;2023-03-30T06:29:48;6.80;97.80
1678;DHT22;6034;46.864;15.216;2023-03-30T06:32:15;6.80;97.70
1678;DHT22;6034;46.864;15.216;2023-03-30T06:34:43;6.90;99.40
1678;DHT22;6034;46.864;15.216;2023-03-30T06:37:10;6.90;99.90
1678;DHT22;6034;46.864;15.216;2023-03-30T06:39:37;6.90;99.90
1678;DHT22;6034;46.864;15.216;2023-03-30T06:42:05;7.00;99.90
1678;DHT22;6034;46.864;15.216;2023-03-30T06:44:34;7.10;99.90
1678;DHT22;6034;46.864;15.216;2023-03-30T06:47:01;7.10;99.90
1678;DHT22;6034;46.864;15.216;2023-03-30T06:49:30;7.10;99.90
1678;DHT22;6034;46.864;15.216;2023-03-30T06:51:57;7.20;99.90
1678;DHT22;6034;46.864;15.216;2023-03-30T06:54:26;7.20;99.90
1678;DHT22;6034;46.864;15.216;2023-03-30T06:56:54;7.20;99.90
1678;DHT22;6034;46.864;15.216;2023-03-30T06:59:21;7.20;99.90
1678;DHT22;6034;46.864;15.216;2023-03-30T07:01:50;7.10;99.90
1678;DHT22;6034;46.864;15.216;2023-03-30T07:04:17;7.10;99.90
1678;DHT22;6034;46.864;15.216;2023-03-30T07:06:44;7.20;99.90
1678;DHT22;6034;46.864;15.216;2023-03-30T07:09:11;7.30;99.90
1678;DHT22;6034;46.864;15.216;2023-03-30T07:11:39;7.30;99.90
1678;DHT22;6034;46.864;15.216;2023-03-30T07:14:06;7.20;99.90
1678;DHT22;6034;46.864;15.216;2023-03-30T07:16:35;7.10;99.90
1678;DHT22;6034;46.864;15.216;2023-03-30T07:19:04;7.10;99.90
1678;DHT22;6034;46.864;15.216;2023-03-30T07:21:32;7.30;99.90
1678;DHT22;6034;46.864;15.216;2023-03-30T07:23:59;7.40;99.90
1678;DHT22;6034;46.864;15.216;2023-03-30T07:26:27;7.50;99.90
1678;DHT22;6034;46.864;15.216;2023-03-30T07:28:54;7.40;99.90
1678;DHT22;6034;46.864;15.216;2023-03-30T07:31:22;7.40;99.90
1678;DHT22;6034;46.864;15.216;2023-03-30T07:33:50;7.60;99.90
1678;DHT22;6034;46.864;15.216;2023-03-30T07:36:19;7.80;99.90
1678;DHT22;6034;46.864;15.216;2023-03-30T07:38:46;8.00;99.90
1678;DHT22;6034;46.864;15.216;2023-03-30T07:41:15;8.00;99.90
1678;DHT22;6034;46.864;15.216;2023-03-30T07:43:42;8.10;99.90
1678;DHT22;6034;46.864;15.216;2023-03-30T07:46:10;8.30;99.90
1678;DHT22;6034;46.864;15.216;2023-03-30T07:48:38;8.50;99.90
1678;DHT22;6034;46.864;15.216;2023-03-30T07:51:07;8.70;99.90
1678;DHT22;6034;46.864;15.216;2023-03-30T07:53:36;9.00;99.90
1678;DHT22;6034;46.864;15.216;2023-03-30T07:56:04;9.20;99.90
1678;DHT22;6034;46.864;15.216;2023-03-30T07:58:31;9.30;99.00
1678;DHT22;6034;46.864;15.216;2023-03-30T08:00:59;9.50;98.10
1678;DHT22;6034;46.864;15.216;2023-03-30T08:03:29;9.70;97.70
1678;DHT22;6034;46.864;15.216;2023-03-30T08:05:59;9.90;98.60
1678;DHT22;6034;46.864;15.216;2023-03-30T08:08:29;10.20;97.90
1678;DHT22;6034;46.864;15.216;2023-03-30T08:10:58;10.30;96.40
1678;DHT22;6034;46.864;15.216;2023-03-30T08:13:25;10.50;95.00
1678;DHT22;6034;46.864;15.216;2023-03-30T08:15:53;10.80;95.70
1678;DHT22;6034;46.864;15.216;2023-03-30T08:18:21;10.90;95.80
1678;DHT22;6034;46.864;15.216;2023-03-30T08:20:50;10.40;97.60
1678;DHT22;6034;46.864;15.216;2023-03-30T08:23:18;10.40;98.00
1678;DHT22;6034;46.864;15.216;2023-03-30T08:25:46;10.60;99.10
1678;DHT22;6034;46.864;15.216;2023-03-30T08:28:18;10.60;97.50
1678;DHT22;6034;46.864;15.216;2023-03-30T08:30:46;10.50;96.70
1678;DHT22;6034;46.864;15.216;2023-03-30T08:33:13;10.70;96.90
1678;DHT22;6034;46.864;15.216;2023-03-30T08:35:43;10.40;94.90
1678;DHT22;6034;46.864;15.216;2023-03-30T08:38:11;10.60;96.60
1678;DHT22;6034;46.864;15.216;2023-03-30T08:40:42;10.40;96.30
1678;DHT22;6034;46.864;15.216;2023-03-30T08:43:32;10.50;96.40
1678;DHT22;6034;46.864;15.216;2023-03-30T08:46:03;10.40;96.70
1678;DHT22;6034;46.864;15.216;2023-03-30T08:48:31;10.50;96.80
1678;DHT22;6034;46.864;15.216;2023-03-30T08:51:07;10.60;96.90
1678;DHT22;6034;46.864;15.216;2023-03-30T08:53:38;10.80;96.90
1678;DHT22;6034;46.864;15.216;2023-03-30T08:56:09;10.90;97.30
1678;DHT22;6034;46.864;15.216;2023-03-30T08:58:44;10.90;96.70
1678;DHT22;6034;46.864;15.216;2023-03-30T09:01:18;11.10;97.70
1678;DHT22;6034;46.864;15.216;2023-03-30T09:04:02;11.30;97.30
1678;DHT22;6034;46.864;15.216;2023-03-30T09:06:42;11.20;96.70
1678;DHT22;6034;46.864;15.216;2023-03-30T09:09:12;11.20;98.10
1678;DHT22;6034;46.864;15.216;2023-03-30T09:11:41;11.50;98.00
1678;DHT22;6034;46.864;15.216;2023-03-30T09:14:16;11.60;97.30
1678;DHT22;6034;46.864;15.216;2023-03-30T09:16:53;11.60;96.80
1678;DHT22;6034;46.864;15.216;2023-03-30T09:19:24;11.50;95.30
1678;DHT22;6034;46.864;15.216;2023-03-30T09:21:55;11.40;95.30
1678;DHT22;6034;46.864;15.216;2023-03-30T09:24:24;11.60;95.30
1678;DHT22;6034;46.864;15.216;2023-03-30T09:26:57;11.60;96.30
1678;DHT22;6034;46.864;15.216;2023-03-30T09:29:31;11.70;95.70
1678;DHT22;6034;46.864;15.216;2023-03-30T09:32:03;11.70;95.40
1678;DHT22;6034;46.864;15.216;2023-03-30T09:34:39;11.60;94.50
1678;DHT22;6034;46.864;15.216;2023-03-30T09:37:12;11.40;94.60
1678;DHT22;6034;46.864;15.216;2023-03-30T09:39:44;11.40;95.50
1678;DHT22;6034;46.864;15.216;2023-03-30T09:42:20;11.70;96.00
1678;DHT22;6034;46.864;15.216;2023-03-30T09:44:58;11.70;95.40
1678;DHT22;6034;46.864;15.216;2023-03-30T09:47:29;11.60;94.30
1678;DHT22;6034;46.864;15.216;2023-03-30T09:50:02;11.50;94.40
1678;DHT22;6034;46.864;15.216;2023-03-30T09:52:31;11.50;96.40
1678;DHT22;6034;46.864;15.216;2023-03-30T09:55:24;11.70;96.20
1678;DHT22;6034;46.864;15.216;2023-03-30T09:57:52;11.70;96.20
1678;DHT22;6034;46.864;15.216;2023-03-30T10:00:28;11.90;95.20
1678;DHT22;6034;46.864;15.216;2023-03-30T10:02:58;11.90;95.50
1678;DHT22;6034;46.864;15.216;2023-03-30T10:05:28;11.90;94.90
1678;DHT22;6034;46.864;15.216;2023-03-30T10:07:57;11.90;95.40
1678;DHT22;6034;46.864;15.216;2023-03-30T10:10:31;12.00;95.80
1678;DHT22;6034;46.864;15.216;2023-03-30T10:13:04;12.00;96.30
1678;DHT22;6034;46.864;15.216;2023-03-30T10:15:36;12.10;96.90
1678;DHT22;6034;46.864;15.216;2023-03-30T10:18:20;12.10;96.50
1678;DHT22;6034;46.864;15.216;2023-03-30T10:20:51;12.20;96.60
1678;DHT22;6034;46.864;15.216;2023-03-30T10:23:20;12.30;97.40
1678;DHT22;6034;46.864;15.216;2023-03-30T10:25:49;12.30;96.70
1678;DHT22;6034;46.864;15.216;2023-03-30T10:28:18;12.30;97.20
1678;DHT22;6034;46.864;15.216;2023-03-30T10:30:52;12.40;96.00
1678;DHT22;6034;46.864;15.216;2023-03-30T10:33:21;12.20;96.10
1678;DHT22;6034;46.864;15.216;2023-03-30T10:35:50;12.30;96.60
1678;DHT22;6034;46.864;15.216;2023-03-30T10:38:20;12.10;95.10
1678;DHT22;6034;46.864;15.216;2023-03-30T10:40:51;12.20;95.40
1678;DHT22;6034;46.864;15.216;2023-03-30T10:43:27;12.20;95.30
1678;DHT22;6034;46.864;15.216;2023-03-30T10:45:58;12.10;94.90
1678;DHT22;6034;46.864;15.216;2023-03-30T10:48:53;12.40;96.00
1678;DHT22;6034;46.864;15.216;2023-03-30T10:51:30;12.50;96.80
1678;DHT22;6034;46.864;15.216;2023-03-30T10:54:06;12.60;96.90
1678;DHT22;6034;46.864;15.216;2023-03-30T10:56:40;12.80;97.30
1678;DHT22;6034;46.864;15.216;2023-03-30T11:02:24;12.70;96.30
1678;DHT22;6034;46.864;15.216;2023-03-30T11:04:58;12.80;97.10
1678;DHT22;6034;46.864;15.216;2023-03-30T11:07:30;12.90;97.00
1678;DHT22;6034;46.864;15.216;2023-03-30T11:10:04;13.00;97.30
1678;DHT22;6034;46.864;15.216;2023-03-30T11:12:39;13.00;96.70
1678;DHT22;6034;46.864;15.216;2023-03-30T11:15:12;13.10;96.40
1678;DHT22;6034;46.864;15.216;2023-03-30T11:17:49;13.00;96.70
1678;DHT22;6034;46.864;15.216;2023-03-30T11:20:24;13.10;97.30
1678;DHT22;6034;46.864;15.216;2023-03-30T11:23:02;13.00;96.40
1678;DHT22;6034;46.864;15.216;2023-03-30T11:25:35;13.00;96.90
1678;DHT22;6034;46.864;15.216;2023-03-30T11:28:11;13.10;97.80
1678;DHT22;6034;46.864;15.216;2023-03-30T11:30:39;13.10;97.50
1678;DHT22;6034;46.864;15.216;2023-03-30T11:33:17;13.00;97.50
1678;DHT22;6034;46.864;15.216;2023-03-30T11:35:46;13.00;97.90
1678;DHT22;6034;46.864;15.216;2023-03-30T11:38:16;13.10;97.40
1678;DHT22;6034;46.864;15.216;2023-03-30T11:40:47;13.20;97.30
1678;DHT22;6034;46.864;15.216;2023-03-30T11:43:18;13.00;96.80
1678;DHT22;6034;46.864;15.216;2023-03-30T11:45:55;12.90;97.50
1678;DHT22;6034;46.864;15.216;2023-03-30T11:48:43;13.00;97.00
1678;DHT22;6034;46.864;15.216;2023-03-30T11:51:34;13.00;96.60
1678;DHT22;6034;46.864;15.216;2023-03-30T11:54:33;13.00;96.30
1678;DHT22;6034;46.864;15.216;2023-03-30T11:57:12;13.10;96.80
1678;DHT22;6034;46.864;15.216;2023-03-30T11:59:46;13.10;97.50
1678;DHT22;6034;46.864;15.216;2023-03-30T12:02:21;13.20;97.70
1678;DHT22;6034;46.864;15.216;2023-03-30T12:04:58;13.20;97.80
1678;DHT22;6034;46.864;15.216;2023-03-30T12:07:34;13.20;97.30
1678;DHT22;6034;46.864;15.216;2023-03-30T12:10:12;13.30;97.00
1678;DHT22;6034;46.864;15.216;2023-03-30T12:12:41;13.30;97.30
1678;DHT22;6034;46.864;15.216;2023-03-30T12:15:19;13.30;97.40
1678;DHT22;6034;46.864;15.216;2023-03-30T12:17:53;13.30;97.60
1678;DHT22;6034;46.864;15.216;2023-03-30T12:20:32;13.30;97.70
1678;DHT22;6034;46.864;15.216;2023-03-30T12:23:10;13.20;97.80
1678;DHT22;6034;46.864;15.216;2023-03-30T12:25:53;13.00;97.00
1678;DHT22;6034;46.864;15.216;2023-03-30T12:28:25;12.90;99.00
1678;DHT22;6034;46.864;15.216;2023-03-30T12:31:05;12.80;98.90
1678;DHT22;6034;46.864;15.216;2023-03-30T12:33:34;12.90;98.30
1678;DHT22;6034;46.864;15.216;2023-03-30T12:36:13;13.00;98.20
1678;DHT22;6034;46.864;15.216;2023-03-30T12:38:52;13.10;97.40
1678;DHT22;6034;46.864;15.216;2023-03-30T12:41:23;13.10;98.00
1678;DHT22;6034;46.864;15.216;2023-03-30T12:44:13;13.20;98.10
1678;DHT22;6034;46.864;15.216;2023-03-30T12:46:54;13.20;99.50
1678;DHT22;6034;46.864;15.216;2023-03-30T12:49:34;13.20;99.20
1678;DHT22;6034;46.864;15.216;2023-03-30T12:52:12;13.20;97.70
1678;DHT22;6034;46.864;15.216;2023-03-30T12:55:06;13.30;98.30
1678;DHT22;6034;46.864;15.216;2023-03-30T12:58:01;13.30;98.30
1678;DHT22;6034;46.864;15.216;2023-03-30T13:00:56;13.40;99.00
1678;DHT22;6034;46.864;15.216;2023-03-30T13:03:46;13.40;99.60
1678;DHT22;6034;46.864;15.216;2023-03-30T13:06:26;13.50;99.90
1678;DHT22;6034;46.864;15.216;2023-03-30T13:09:02;13.60;99.90
1678;DHT22;6034;46.864;15.216;2023-03-30T13:11:43;13.60;99.90
1678;DHT22;6034;46.864;15.216;2023-03-30T13:14:15;13.70;99.90
1678;DHT22;6034;46.864;15.216;2023-03-30T13:17:05;13.70;99.20
1678;DHT22;6034;46.864;15.216;2023-03-30T13:19:42;13.70;99.90
1678;DHT22;6034;46.864;15.216;2023-03-30T13:22:33;13.90;99.70
1678;DHT22;6034;46.864;15.216;2023-03-30T13:25:24;14.00;99.40
1678;DHT22;6034;46.864;15.216;2023-03-30T13:27:56;13.80;99.90
1678;DHT22;6034;46.864;15.216;2023-03-30T13:30:26;13.80;99.90
1678;DHT22;6034;46.864;15.216;2023-03-30T13:33:04;13.70;98.80
1678;DHT22;6034;46.864;15.216;2023-03-30T13:35:54;13.70;98.60
1678;DHT22;6034;46.864;15.216;2023-03-30T13:38:38;13.70;98.80
1678;DHT22;6034;46.864;15.216;2023-03-30T13:41:16;13.90;99.60
1678;DHT22;6034;46.864;15.216;2023-03-30T13:43:58;14.10;98.70
1678;DHT22;6034;46.864;15.216;2023-03-30T13:46:34;14.20;98.10
1678;DHT22;6034;46.864;15.216;2023-03-30T13:49:13;14.20;98.70
1678;DHT22;6034;46.864;15.216;2023-03-30T13:51:43;14.30;99.40
1678;DHT22;6034;46.864;15.216;2023-03-30T13:54:15;14.30;97.70
1678;DHT22;6034;46.864;15.216;2023-03-30T13:56:47;14.30;97.20
1678;DHT22;6034;46.864;15.216;2023-03-30T13:59:18;14.30;97.40
1678;DHT22;6034;46.864;15.216;2023-03-30T14:01:49;14.30;98.30
1678;DHT22;6034;46.864;15.216;2023-03-30T14:04:18;14.00;96.30
1678;DHT22;6034;46.864;15.216;2023-03-30T14:06:47;13.90;96.10
1678;DHT22;6034;46.864;15.216;2023-03-30T14:09:20;14.00;95.70
1678;DHT22;6034;46.864;15.216;2023-03-30T14:11:52;13.80;95.90
1678;DHT22;6034;46.864;15.216;2023-03-30T14:14:25;13.80;96.30
1678;DHT22;6034;46.864;15.216;2023-03-30T14:16:58;13.70;96.40
1678;DHT22;6034;46.864;15.216;2023-03-30T14:19:27;13.80;96.70
1678;DHT22;6034;46.864;15.216;2023-03-30T14:21:57;13.80;96.30
1678;DHT22;6034;46.864;15.216;2023-03-30T14:24:30;13.90;97.00
1678;DHT22;6034;46.864;15.216;2023-03-30T14:27:03;14.00;96.90
1678;DHT22;6034;46.864;15.216;2023-03-30T14:29:31;14.10;96.50
1678;DHT22;6034;46.864;15.216;2023-03-30T14:32:00;14.00;96.10
1678;DHT22;6034;46.864;15.216;2023-03-30T14:34:30;13.90;96.60
1678;DHT22;6034;46.864;15.216;2023-03-30T14:37:02;13.80;96.40
1678;DHT22;6034;46.864;15.216;2023-03-30T14:39:32;13.80;96.00
1678;DHT22;6034;46.864;15.216;2023-03-30T14:42:13;13.90;97.00
1678;DHT22;6034;46.864;15.216;2023-03-30T14:44:43;13.90;96.50
1678;DHT22;6034;46.864;15.216;2023-03-30T14:47:12;13.90;96.60
1678;DHT22;6034;46.864;15.216;2023-03-30T14:49:41;13.90;96.20
1678;DHT22;6034;46.864;15.216;2023-03-30T14:52:16;13.90;96.40
1678;DHT22;6034;46.864;15.216;2023-03-30T14:54:44;13.90;96.90
1678;DHT22;6034;46.864;15.216;2023-03-30T14:57:15;14.00;97.10
1678;DHT22;6034;46.864;15.216;2023-03-30T14:59:46;14.00;97.60
1678;DHT22;6034;46.864;15.216;2023-03-30T15:02:18;14.10;96.90
1678;DHT22;6034;46.864;15.216;2023-03-30T15:04:47;14.10;96.80
1678;DHT22;6034;46.864;15.216;2023-03-30T15:07:16;14.10;96.90
1678;DHT22;6034;46.864;15.216;2023-03-30T15:09:46;14.10;97.00
1678;DHT22;6034;46.864;15.216;2023-03-30T15:12:19;14.10;97.00
1678;DHT22;6034;46.864;15.216;2023-03-30T15:14:52;14.20;97.10
1678;DHT22;6034;46.864;15.216;2023-03-30T15:17:22;14.20;96.90
1678;DHT22;6034;46.864;15.216;2023-03-30T15:19:52;14.20;97.40
1678;DHT22;6034;46.864;15.216;2023-03-30T15:22:24;14.20;97.90
1678;DHT22;6034;46.864;15.216;2023-03-30T15:24:53;14.20;98.00
1678;DHT22;6034;46.864;15.216;2023-03-30T15:27:22;14.10;98.00
1678;DHT22;6034;46.864;15.216;2023-03-30T15:29:49;14.20;97.80
1678;DHT22;6034;46.864;15.216;2023-03-30T15:32:17;14.10;98.20
1678;DHT22;6034;46.864;15.216;2023-03-30T15:35:00;14.20;98.20
1678;DHT22;6034;46.864;15.216;2023-03-30T15:37:31;14.10;98.00
1678;DHT22;6034;46.864;15.216;2023-03-30T15:39:59;14.10;97.50
1678;DHT22;6034;46.864;15.216;2023-03-30T15:42:29;14.10;97.40
1678;DHT22;6034;46.864;15.216;2023-03-30T15:45:00;14.10;97.40
1678;DHT22;6034;46.864;15.216;2023-03-30T15:47:27;14.00;97.80
1678;DHT22;6034;46.864;15.216;2023-03-30T15:49:55;14.00;97.90
1678;DHT22;6034;46.864;15.216;2023-03-30T15:52:22;14.00;97.60
1678;DHT22;6034;46.864;15.216;2023-03-30T15:54:50;14.00;97.70
1678;DHT22;6034;46.864;15.216;2023-03-30T15:57:20;14.10;98.50
1678;DHT22;6034;46.864;15.216;2023-03-30T15:59:51;14.10;98.90
1678;DHT22;6034;46.864;15.216;2023-03-30T16:02:21;14.00;99.20
1678;DHT22;6034;46.864;15.216;2023-03-30T16:04:49;14.00;99.00
1678;DHT22;6034;46.864;15.216;2023-03-30T16:07:17;14.00;98.70
1678;DHT22;6034;46.864;15.216;2023-03-30T16:09:45;13.60;97.80
1678;DHT22;6034;46.864;15.216;2023-03-30T16:12:13;14.00;97.50
1678;DHT22;6034;46.864;15.216;2023-03-30T16:14:41;14.00;98.30
1678;DHT22;6034;46.864;15.216;2023-03-30T16:17:10;13.90;99.80
1678;DHT22;6034;46.864;15.216;2023-03-30T16:19:38;14.00;98.50
1678;DHT22;6034;46.864;15.216;2023-03-30T16:22:08;14.00;98.60
1678;DHT22;6034;46.864;15.216;2023-03-30T16:24:36;14.00;98.70
1678;DHT22;6034;46.864;15.216;2023-03-30T16:27:03;13.90;99.10
1678;DHT22;6034;46.864;15.216;2023-03-30T16:29:31;13.90;99.10
1678;DHT22;6034;46.864;15.216;2023-03-30T16:31:58;13.90;99.20
1678;DHT22;6034;46.864;15.216;2023-03-30T16:34:27;13.90;99.20
1678;DHT22;6034;46.864;15.216;2023-03-30T16:36:54;14.00;97.70
1678;DHT22;6034;46.864;15.216;2023-03-30T16:39:22;14.00;99.50
1678;DHT22;6034;46.864;15.216;2023-03-30T16:41:50;14.00;98.90
1678;DHT22;6034;46.864;15.216;2023-03-30T16:44:18;13.90;99.80
1678;DHT22;6034;46.864;15.216;2023-03-30T16:46:47;13.80;99.90
1678;DHT22;6034;46.864;15.216;2023-03-30T16:49:15;13.70;99.90
1678;DHT22;6034;46.864;15.216;2023-03-30T16:51:47;13.80;98.80
1678;DHT22;6034;46.864;15.216;2023-03-30T16:54:15;13.80;98.30
1678;DHT22;6034;46.864;15.216;2023-03-30T16:56:43;13.90;97.90
1678;DHT22;6034;46.864;15.216;2023-03-30T16:59:11;13.90;97.70
1678;DHT22;6034;46.864;15.216;2023-03-30T17:01:45;13.90;97.80
1678;DHT22;6034;46.864;15.216;2023-03-30T17:04:14;13.90;98.10
1678;DHT22;6034;46.864;15.216;2023-03-30T17:06:41;13.90;98.40
1678;DHT22;6034;46.864;15.216;2023-03-30T17:09:11;13.80;99.10
1678;DHT22;6034;46.864;15.216;2023-03-30T17:11:38;13.70;98.40
1678;DHT22;6034;46.864;15.216;2023-03-30T17:14:05;13.80;98.10
1678;DHT22;6034;46.864;15.216;2023-03-30T17:16:33;13.80;97.60
1678;DHT22;6034;46.864;15.216;2023-03-30T17:19:01;13.90;97.10
1678;DHT22;6034;46.864;15.216;2023-03-30T17:21:28;13.90;97.10
1678;DHT22;6034;46.864;15.216;2023-03-30T17:23:56;14.00;97.00
1678;DHT22;6034;46.864;15.216;2023-03-30T17:26:25;14.00;96.80
1678;DHT22;6034;46.864;15.216;2023-03-30T17:28:54;14.10;96.40
1678;DHT22;6034;46.864;15.216;2023-03-30T17:31:21;14.10;96.20
1678;DHT22;6034;46.864;15.216;2023-03-30T17:33:49;14.10;96.30
1678;DHT22;6034;46.864;15.216;2023-03-30T17:36:17;14.10;96.40
1678;DHT22;6034;46.864;15.216;2023-03-30T17:38:46;14.20;95.80
1678;DHT22;6034;46.864;15.216;2023-03-30T17:41:14;14.20;95.70
1678;DHT22;6034;46.864;15.216;2023-03-30T17:43:45;14.30;95.50
1678;DHT22;6034;46.864;15.216;2023-03-30T17:46:14;14.30;95.60
1678;DHT22;6034;46.864;15.216;2023-03-30T17:48:46;14.40;95.20
1678;DHT22;6034;46.864;15.216;2023-03-30T17:51:16;14.40;95.30
1678;DHT22;6034;46.864;15.216;2023-03-30T17:53:43;14.40;95.00
1678;DHT22;6034;46.864;15.216;2023-03-30T17:56:11;14.40;95.10
1678;DHT22;6034;46.864;15.216;2023-03-30T17:58:39;14.30;95.20
1678;DHT22;6034;46.864;15.216;2023-03-30T18:01:08;14.30;95.10
1678;DHT22;6034;46.864;15.216;2023-03-30T18:03:38;14.30;95.30
1678;DHT22;6034;46.864;15.216;2023-03-30T18:06:06;14.30;95.00
1678;DHT22;6034;46.864;15.216;2023-03-30T18:08:36;14.40;95.20
1678;DHT22;6034;46.864;15.216;2023-03-30T18:11:04;14.30;95.10
1678;DHT22;6034;46.864;15.216;2023-03-30T18:13:32;14.30;95.60
1678;DHT22;6034;46.864;15.216;2023-03-30T18:15:59;14.20;96.20
1678;DHT22;6034;46.864;15.216;2023-03-30T18:18:28;14.10;97.20
1678;DHT22;6034;46.864;15.216;2023-03-30T18:20:56;14.10;97.60
1678;DHT22;6034;46.864;15.216;2023-03-30T18:23:27;14.00;97.60
1678;DHT22;6034;46.864;15.216;2023-03-30T18:25:56;13.90;97.70
1678;DHT22;6034;46.864;15.216;2023-03-30T18:28:24;13.80;97.60
1678;DHT22;6034;46.864;15.216;2023-03-30T18:30:52;13.70;97.60
1678;DHT22;6034;46.864;15.216;2023-03-30T18:33:22;13.70;97.80
1678;DHT22;6034;46.864;15.216;2023-03-30T18:35:51;13.80;97.70
1678;DHT22;6034;46.864;15.216;2023-03-30T18:38:21;13.70;98.00
1678;DHT22;6034;46.864;15.216;2023-03-30T18:40:50;13.70;98.30
1678;DHT22;6034;46.864;15.216;2023-03-30T18:43:18;13.80;97.70
1678;DHT22;6034;46.864;15.216;2023-03-30T18:45:46;13.70;97.80
1678;DHT22;6034;46.864;15.216;2023-03-30T18:48:18;13.70;97.80
1678;DHT22;6034;46.864;15.216;2023-03-30T18:50:46;13.70;97.40
1678;DHT22;6034;46.864;15.216;2023-03-30T18:53:16;13.70;97.00
1678;DHT22;6034;46.864;15.216;2023-03-30T18:55:44;13.70;97.20
1678;DHT22;6034;46.864;15.216;2023-03-30T18:58:13;13.70;97.20
1678;DHT22;6034;46.864;15.216;2023-03-30T19:00:43;13.70;98.00
1678;DHT22;6034;46.864;15.216;2023-03-30T19:03:10;13.70;98.50
1678;DHT22;6034;46.864;15.216;2023-03-30T19:05:39;13.60;98.80
1678;DHT22;6034;46.864;15.216;2023-03-30T19:08:09;13.60;99.00
1678;DHT22;6034;46.864;15.216;2023-03-30T19:10:53;13.60;98.70
1678;DHT22;6034;46.864;15.216;2023-03-30T19:13:22;13.60;98.80
1678;DHT22;6034;46.864;15.216;2023-03-30T19:15:51;13.60;99.10
1678;DHT22;6034;46.864;15.216;2023-03-30T19:18:19;13.50;99.00
1678;DHT22;6034;46.864;15.216;2023-03-30T19:20:47;13.50;99.10
1678;DHT22;6034;46.864;15.216;2023-03-30T19:23:17;13.60;99.00
1678;DHT22;6034;46.864;15.216;2023-03-30T19:25:48;13.40;99.20
1678;DHT22;6034;46.864;15.216;2023-03-30T19:28:16;13.50;99.40
1678;DHT22;6034;46.864;15.216;2023-03-30T19:30:45;13.50;99.80
1678;DHT22;6034;46.864;15.216;2023-03-30T19:33:14;13.40;99.70
1678;DHT22;6034;46.864;15.216;2023-03-30T19:35:44;13.30;99.80
1678;DHT22;6034;46.864;15.216;2023-03-30T19:38:12;13.30;99.80
1678;DHT22;6034;46.864;15.216;2023-03-30T19:40:40;13.30;99.90
1678;DHT22;6034;46.864;15.216;2023-03-30T19:43:10;13.30;99.90
1678;DHT22;6034;46.864;15.216;2023-03-30T19:45:38;13.30;99.60
1678;DHT22;6034;46.864;15.216;2023-03-30T19:48:06;13.30;99.90
1678;DHT22;6034;46.864;15.216;2023-03-30T19:50:34;13.30;99.90
1678;DHT22;6034;46.864;15.216;2023-03-30T19:53:03;13.30;99.90
1678;DHT22;6034;46.864;15.216;2023-03-30T19:55:31;13.30;99.90
1678;DHT22;6034;46.864;15.216;2023-03-30T19:57:59;13.20;99.90
1678;DHT22;6034;46.864;15.216;2023-03-30T20:00:28;13.30;99.90
1678;DHT22;6034;46.864;15.216;2023-03-30T20:02:59;13.20;99.90
1678;DHT22;6034;46.864;15.216;2023-03-30T20:05:27;13.20;99.90
1678;DHT22;6034;46.864;15.216;2023-03-30T20:07:54;13.20;99.90
1678;DHT22;6034;46.864;15.216;2023-03-30T20:10:23;13.20;99.90
1678;DHT22;6034;46.864;15.216;2023-03-30T20:12:50;13.20;99.80
1678;DHT22;6034;46.864;15.216;2023-03-30T20:15:19;13.20;99.70
1678;DHT22;6034;46.864;15.216;2023-03-30T20:17:49;13.20;99.50
1678;DHT22;6034;46.864;15.216;2023-03-30T20:20:23;13.30;98.80
1678;DHT22;6034;46.864;15.216;2023-03-30T20:22:51;13.30;99.10
1678;DHT22;6034;46.864;15.216;2023-03-30T20:25:20;13.20;98.80
1678;DHT22;6034;46.864;15.216;2023-03-30T20:27:47;13.20;99.20
1678;DHT22;6034;46.864;15.216;2023-03-30T20:30:15;13.20;99.60
1678;DHT22;6034;46.864;15.216;2023-03-30T20:32:43;13.20;99.60
1678;DHT22;6034;46.864;15.216;2023-03-30T20:35:12;13.10;99.70
1678;DHT22;6034;46.864;15.216;2023-03-30T20:37:39;13.20;99.50
1678;DHT22;6034;46.864;15.216;2023-03-30T20:40:06;13.20;99.40
1678;DHT22;6034;46.864;15.216;2023-03-30T20:42:36;13.20;99.70
1678;DHT22;6034;46.864;15.216;2023-03-30T20:45:05;13.20;99.90
1678;DHT22;6034;46.864;15.216;2023-03-30T20:47:33;13.00;99.90
1678;DHT22;6034;46.864;15.216;2023-03-30T20:50:00;12.90;99.90
1678;DHT22;6034;46.864;15.216;2023-03-30T20:52:29;12.90;99.90
1678;DHT22;6034;46.864;15.216;2023-03-30T20:54:56;12.90;99.90
1678;DHT22;6034;46.864;15.216;2023-03-30T20:57:24;12.90;99.90
1678;DHT22;6034;46.864;15.216;2023-03-30T20:59:51;12.90;99.90
1678;DHT22;6034;46.864;15.216;2023-03-30T21:02:19;12.90;99.90
1678;DHT22;6034;46.864;15.216;2023-03-30T21:04:46;12.90;99.90
1678;DHT22;6034;46.864;15.216;2023-03-30T21:07:13;12.90;99.90
1678;DHT22;6034;46.864;15.216;2023-03-30T21:09:43;12.90;99.90
1678;DHT22;6034;46.864;15.216;2023-03-30T21:12:10;12.80;99.90
1678;DHT22;6034;46.864;15.216;2023-03-30T21:14:37;12.90;99.90
1678;DHT22;6034;46.864;15.216;2023-03-30T21:17:04;12.90;99.90